Time;durP1;ratioP1;P1;durP2;ratioP2;P2;SDS_P1;SDS_P2;PMS_P1;PMS_P2;Temp;Humidity;BMP_temperature;BMP_pressure;BME280_temperature;BME280_humidity;BME280_pressure;Samples;Min_cycle;Max_cycle;Signal;HPM_P1;HPM_P2
2023/03/25 00:01:14;;;;;;;23.38;15.18;;;;;;;;;;5094888;28;20550;-71
2023/03/25 00:04:00;;;;;;;23.58;14.75;;;;;;;;;;5080577;28;20039;-70
2023/03/25 00:06:46;;;;;;;23.15;15.10;;;;;;;;;;5094238;28;20044;-71
2023/03/25 00:09:32;;;;;;;22.17;15.05;;;;;;;;;;5095065;28;20024;-71
2023/03/25 00:12:17;;;;;;;22.45;14.02;;;;;;;;;;5095246;28;20023;-71
2023/03/25 00:15:04;;;;;;;22.25;15.20;;;;;;;;;;5094264;28;20141;-70
2023/03/25 00:17:50;;;;;;;22.50;14.68;;;;;;;;;;5095034;28;20024;-71
2023/03/25 00:20:35;;;;;;;22.33;14.90;;;;;;;;;;5093827;28;20024;-72
2023/03/25 00:23:21;;;;;;;23.17;14.57;;;;;;;;;;5093509;28;20165;-70
2023/03/25 00:26:07;;;;;;;25.63;14.80;;;;;;;;;;5093929;28;20020;-70
2023/03/25 00:28:52;;;;;;;33.33;14.63;;;;;;;;;;5097229;28;20054;-71
2023/03/25 00:31:39;;;;;;;23.73;14.48;;;;;;;;;;5099692;28;20081;-69
2023/03/25 00:34:24;;;;;;;20.95;13.55;;;;;;;;;;5101717;28;20031;-69
2023/03/25 00:37:10;;;;;;;21.00;14.27;;;;;;;;;;5102391;28;20028;-68
2023/03/25 00:39:55;;;;;;;20.35;14.23;;;;;;;;;;5100591;28;20038;-69
2023/03/25 00:42:43;;;;;;;21.33;13.45;;;;;;;;;;5086115;28;20368;-70
2023/03/25 00:45:29;;;;;;;23.95;14.70;;;;;;;;;;5100928;28;20020;-71
2023/03/25 00:48:15;;;;;;;22.90;14.57;;;;;;;;;;5101486;28;20016;-69
2023/03/25 00:51:07;;;;;;;25.35;14.77;;;;;;;;;;5100964;28;20016;-71
2023/03/25 00:53:54;;;;;;;21.00;14.45;;;;;;;;;;5101390;28;20513;-70
2023/03/25 00:56:40;;;;;;;19.42;12.88;;;;;;;;;;5101569;28;20024;-70
2023/03/25 00:59:25;;;;;;;19.52;13.80;;;;;;;;;;5101046;28;20039;-70
2023/03/25 01:02:11;;;;;;;24.30;15.50;;;;;;;;;;5099482;28;20031;-70
2023/03/25 01:04:58;;;;;;;22.90;15.65;;;;;;;;;;5100050;28;20038;-70
2023/03/25 01:07:44;;;;;;;25.90;15.38;;;;;;;;;;5085864;28;20399;-70
2023/03/25 01:10:30;;;;;;;23.13;15.32;;;;;;;;;;5101013;28;20016;-71
2023/03/25 01:13:15;;;;;;;23.50;15.02;;;;;;;;;;5099873;28;20012;-71
2023/03/25 01:16:05;;;;;;;26.00;15.30;;;;;;;;;;5087176;28;20027;-71
2023/03/25 01:18:52;;;;;;;21.60;14.52;;;;;;;;;;5101486;28;20054;-70
2023/03/25 01:21:38;;;;;;;26.35;16.02;;;;;;;;;;5100992;28;20115;-70
2023/03/25 01:24:24;;;;;;;22.60;15.45;;;;;;;;;;5086078;28;20020;-70
2023/03/25 01:27:10;;;;;;;22.15;15.05;;;;;;;;;;5086890;28;20031;-70
2023/03/25 01:29:55;;;;;;;24.55;14.95;;;;;;;;;;5099982;28;20016;-70
2023/03/25 01:32:41;;;;;;;21.77;15.70;;;;;;;;;;5099632;28;20050;-70
2023/03/25 01:35:27;;;;;;;25.00;16.33;;;;;;;;;;5099992;28;20024;-70
2023/03/25 01:38:12;;;;;;;21.70;15.25;;;;;;;;;;5101122;28;20098;-70
2023/03/25 01:40:58;;;;;;;22.77;15.57;;;;;;;;;;5098075;28;20129;-72
2023/03/25 01:43:59;;;;;;;23.30;15.85;;;;;;;;;;5095897;28;20048;-71
2023/03/25 01:46:48;;;;;;;24.08;16.25;;;;;;;;;;5083678;28;20016;-70
2023/03/25 01:49:37;;;;;;;25.50;16.65;;;;;;;;;;5097330;28;20071;-70
2023/03/25 01:52:24;;;;;;;24.02;16.38;;;;;;;;;;5096815;28;20030;-70
2023/03/25 01:55:10;;;;;;;23.52;16.40;;;;;;;;;;5097547;28;20103;-71
2023/03/25 01:57:58;;;;;;;22.92;16.23;;;;;;;;;;5097213;28;20074;-70
2023/03/25 02:00:44;;;;;;;24.90;15.95;;;;;;;;;;5082987;28;20440;-70
2023/03/25 02:03:35;;;;;;;28.67;16.25;;;;;;;;;;5097153;28;20028;-70
2023/03/25 02:06:25;;;;;;;22.33;15.73;;;;;;;;;;5096727;28;20101;-71
2023/03/25 02:09:12;;;;;;;23.23;15.57;;;;;;;;;;5083342;28;20043;-71
2023/03/25 02:11:58;;;;;;;34.22;17.35;;;;;;;;;;5083040;28;20090;-70
2023/03/25 02:14:44;;;;;;;27.40;17.50;;;;;;;;;;5083054;28;20085;-70
2023/03/25 02:17:30;;;;;;;25.90;17.10;;;;;;;;;;5095701;28;20090;-69
2023/03/25 02:20:35;;;;;;;26.42;17.05;;;;;;;;;;5082869;28;20024;-70
2023/03/25 02:23:27;;;;;;;26.77;16.42;;;;;;;;;;5096819;28;20038;-70
2023/03/25 02:26:32;;;;;;;24.20;16.55;;;;;;;;;;5096801;28;20078;-70
2023/03/25 02:29:25;;;;;;;26.75;16.08;;;;;;;;;;5097007;28;20016;-71
2023/03/25 02:32:14;;;;;;;24.67;15.82;;;;;;;;;;5095170;28;20024;-69
2023/03/25 02:35:14;;;;;;;23.35;16.52;;;;;;;;;;5096513;28;20123;-70
2023/03/25 02:38:06;;;;;;;25.48;17.13;;;;;;;;;;5082583;28;20397;-70
2023/03/25 02:41:12;;;;;;;22.52;16.13;;;;;;;;;;5082103;28;20034;-69
2023/03/25 02:44:02;;;;;;;26.10;17.42;;;;;;;;;;5096642;28;20128;-70
2023/03/25 02:46:50;;;;;;;27.10;17.48;;;;;;;;;;5096064;28;20139;-71
2023/03/25 02:49:41;;;;;;;25.38;17.77;;;;;;;;;;5096505;28;20377;-70
2023/03/25 02:52:32;;;;;;;23.45;17.10;;;;;;;;;;5095387;28;20020;-71
2023/03/25 02:55:19;;;;;;;24.77;17.60;;;;;;;;;;5097238;28;20367;-71
2023/03/25 02:58:08;;;;;;;23.70;16.88;;;;;;;;;;5081531;28;20488;-70
2023/03/25 03:00:57;;;;;;;25.00;17.52;;;;;;;;;;5081867;28;20032;-71
2023/03/25 03:03:43;;;;;;;25.45;17.77;;;;;;;;;;5094537;28;20027;-71
2023/03/25 03:06:29;;;;;;;23.77;16.48;;;;;;;;;;5096170;28;20051;-72
2023/03/25 03:09:24;;;;;;;25.02;17.58;;;;;;;;;;5096343;28;20100;-70
2023/03/25 03:12:12;;;;;;;23.73;17.35;;;;;;;;;;5096266;28;20112;-71
2023/03/25 03:15:04;;;;;;;28.35;17.60;;;;;;;;;;5094674;28;20015;-71
2023/03/25 03:17:56;;;;;;;22.80;16.15;;;;;;;;;;5095616;28;20028;-71
2023/03/25 03:20:59;;;;;;;24.13;15.93;;;;;;;;;;5095372;28;20031;-71
2023/03/25 03:23:56;;;;;;;26.42;17.90;;;;;;;;;;5095360;28;20032;-70
2023/03/25 03:26:45;;;;;;;25.73;18.38;;;;;;;;;;5094867;28;20099;-72
2023/03/25 03:29:34;;;;;;;30.05;20.40;;;;;;;;;;5081119;28;20448;-70
2023/03/25 03:32:31;;;;;;;26.10;17.02;;;;;;;;;;5095333;28;20043;-70
2023/03/25 03:35:28;;;;;;;22.38;15.63;;;;;;;;;;5081630;28;20020;-71
2023/03/25 03:38:15;;;;;;;21.20;14.07;;;;;;;;;;5081368;28;20020;-70
2023/03/25 03:41:05;;;;;;;17.92;13.02;;;;;;;;;;5095069;28;20448;-70
2023/03/25 03:43:53;;;;;;;19.25;14.07;;;;;;;;;;5095587;28;20034;-70
2023/03/25 03:46:42;;;;;;;18.85;13.55;;;;;;;;;;5094965;28;20016;-71
2023/03/25 03:49:38;;;;;;;20.38;13.40;;;;;;;;;;5095105;28;20078;-70
2023/03/25 03:52:26;;;;;;;20.20;14.10;;;;;;;;;;5094525;28;20454;-70
2023/03/25 03:55:17;;;;;;;20.52;13.25;;;;;;;;;;5095291;28;20027;-71
2023/03/25 03:58:29;;;;;;;19.67;13.20;;;;;;;;;;5095187;28;20016;-70
2023/03/25 04:01:18;;;;;;;19.13;13.38;;;;;;;;;;5080479;28;20024;-71
2023/03/25 04:04:06;;;;;;;16.35;12.35;;;;;;;;;;5094601;28;20034;-71
2023/03/25 04:06:56;;;;;;;18.92;13.25;;;;;;;;;;5080666;28;20044;-69
2023/03/25 04:09:53;;;;;;;18.80;13.25;;;;;;;;;;5093328;28;20021;-71
2023/03/25 04:12:44;;;;;;;18.20;12.80;;;;;;;;;;5094298;28;20469;-72
2023/03/25 04:15:30;;;;;;;17.90;12.85;;;;;;;;;;5080049;28;20345;-71
2023/03/25 04:18:16;;;;;;;20.17;13.02;;;;;;;;;;5094819;28;20036;-71
2023/03/25 04:21:02;;;;;;;19.40;12.30;;;;;;;;;;5094685;28;20039;-70
2023/03/25 04:23:48;;;;;;;16.77;11.98;;;;;;;;;;5080963;28;20066;-70
2023/03/25 04:26:36;;;;;;;21.55;13.35;;;;;;;;;;5093752;28;20028;-70
2023/03/25 04:29:23;;;;;;;19.10;12.55;;;;;;;;;;5079712;28;20020;-71
2023/03/25 04:32:12;;;;;;;20.92;12.60;;;;;;;;;;5080465;28;20078;-71
2023/03/25 04:34:58;;;;;;;17.45;12.15;;;;;;;;;;5093220;28;20039;-70
2023/03/25 04:37:44;;;;;;;17.92;12.75;;;;;;;;;;5094789;28;20456;-71
2023/03/25 04:40:30;;;;;;;18.95;12.98;;;;;;;;;;5094855;28;20028;-70
2023/03/25 04:43:16;;;;;;;17.45;12.90;;;;;;;;;;5080270;28;20024;-71
2023/03/25 04:46:02;;;;;;;20.17;12.57;;;;;;;;;;5094857;28;20466;-72
2023/03/25 04:48:48;;;;;;;22.50;13.93;;;;;;;;;;5094234;28;20123;-71
2023/03/25 04:51:33;;;;;;;19.17;12.85;;;;;;;;;;5092979;28;20024;-72
2023/03/25 04:54:20;;;;;;;18.30;12.30;;;;;;;;;;5093819;28;20043;-73
2023/03/25 04:57:08;;;;;;;23.50;13.10;;;;;;;;;;5080230;28;20016;-70
2023/03/25 04:59:55;;;;;;;27.25;14.82;;;;;;;;;;5094604;28;20120;-70
2023/03/25 05:02:45;;;;;;;21.33;13.60;;;;;;;;;;5093304;28;20054;-72
2023/03/25 05:05:30;;;;;;;27.05;14.75;;;;;;;;;;5093867;28;20032;-71
2023/03/25 05:08:16;;;;;;;26.13;14.43;;;;;;;;;;5092383;28;20028;-71
2023/03/25 05:11:02;;;;;;;23.30;13.80;;;;;;;;;;5093975;28;20040;-70
2023/03/25 05:13:47;;;;;;;20.83;14.05;;;;;;;;;;5094221;28;20043;-70
2023/03/25 05:16:33;;;;;;;23.38;14.57;;;;;;;;;;5096663;28;20028;-71
2023/03/25 05:19:19;;;;;;;35.22;17.00;;;;;;;;;;5098315;28;20055;-71
2023/03/25 05:22:06;;;;;;;27.33;17.38;;;;;;;;;;5083237;28;20024;-71
2023/03/25 05:24:53;;;;;;;27.88;16.90;;;;;;;;;;5098442;28;20121;-71
2023/03/25 05:27:38;;;;;;;22.02;15.00;;;;;;;;;;5084624;28;20027;-70
2023/03/25 05:30:31;;;;;;;22.50;13.90;;;;;;;;;;5083158;28;20020;-70
2023/03/25 05:33:17;;;;;;;22.15;13.85;;;;;;;;;;5097768;28;20360;-69
2023/03/25 05:36:03;;;;;;;21.98;14.50;;;;;;;;;;5097558;28;20111;-71
2023/03/25 05:38:50;;;;;;;21.17;14.50;;;;;;;;;;5097511;28;20470;-70
2023/03/25 05:41:38;;;;;;;25.30;14.65;;;;;;;;;;5098312;28;20367;-70
2023/03/25 05:44:25;;;;;;;22.50;13.38;;;;;;;;;;5097814;28;20119;-71
2023/03/25 05:47:10;;;;;;;20.38;13.63;;;;;;;;;;5097215;28;20089;-70
2023/03/25 05:49:57;;;;;;;22.17;13.75;;;;;;;;;;5082974;28;20393;-71
2023/03/25 05:52:43;;;;;;;26.63;14.05;;;;;;;;;;5098063;28;20452;-69
2023/03/25 05:55:28;;;;;;;26.00;13.95;;;;;;;;;;5082962;28;20444;-70
2023/03/25 05:58:16;;;;;;;20.52;13.10;;;;;;;;;;5097675;28;20103;-70
2023/03/25 06:01:03;;;;;;;20.40;13.07;;;;;;;;;;5095941;28;20166;-70
2023/03/25 06:03:48;;;;;;;22.25;13.15;;;;;;;;;;5096966;28;20028;-69
2023/03/25 06:06:34;;;;;;;22.95;14.10;;;;;;;;;;5083027;28;20472;-71
2023/03/25 06:09:20;;;;;;;20.90;13.85;;;;;;;;;;5096580;28;20451;-71
2023/03/25 06:12:06;;;;;;;23.15;13.95;;;;;;;;;;5096078;28;20412;-70
2023/03/25 06:14:53;;;;;;;20.20;12.32;;;;;;;;;;5082634;28;20023;-70
2023/03/25 06:17:39;;;;;;;19.50;11.45;;;;;;;;;;5096954;28;20024;-71
2023/03/25 06:20:25;;;;;;;18.73;10.85;;;;;;;;;;5095431;28;20377;-71
2023/03/25 06:23:10;;;;;;;16.48;10.30;;;;;;;;;;5096699;28;20027;-71
2023/03/25 06:25:57;;;;;;;18.23;10.93;;;;;;;;;;5095737;28;20039;-70
2023/03/25 06:28:43;;;;;;;16.00;10.40;;;;;;;;;;5096224;28;20103;-71
2023/03/25 06:31:32;;;;;;;17.85;10.45;;;;;;;;;;5096273;28;20044;-71
2023/03/25 06:34:17;;;;;;;13.55;9.30;;;;;;;;;;5096174;28;20364;-72
2023/03/25 06:37:03;;;;;;;15.13;9.85;;;;;;;;;;5095340;28;20453;-71
2023/03/25 06:39:49;;;;;;;16.98;9.80;;;;;;;;;;5097105;28;20497;-72
2023/03/25 06:42:34;;;;;;;14.38;9.60;;;;;;;;;;5095303;28;20453;-72
2023/03/25 06:45:20;;;;;;;12.95;9.55;;;;;;;;;;5095062;28;20028;-72
2023/03/25 06:48:06;;;;;;;17.05;9.43;;;;;;;;;;5080955;28;20026;-71
2023/03/25 06:50:52;;;;;;;12.98;9.07;;;;;;;;;;5095375;28;20024;-72
2023/03/25 06:53:37;;;;;;;16.92;9.50;;;;;;;;;;5097339;28;20018;-72
2023/03/25 06:56:23;;;;;;;19.20;9.98;;;;;;;;;;5095741;28;20016;-71
2023/03/25 06:59:08;;;;;;;15.18;8.95;;;;;;;;;;5095372;28;20012;-72
2023/03/25 07:01:54;;;;;;;14.35;9.95;;;;;;;;;;5094744;28;20110;-72
2023/03/25 07:04:40;;;;;;;12.75;9.18;;;;;;;;;;5094849;28;20035;-73
2023/03/25 07:07:26;;;;;;;15.57;10.38;;;;;;;;;;5094326;28;20036;-72
2023/03/25 07:10:12;;;;;;;17.40;11.00;;;;;;;;;;5095910;28;20095;-72
2023/03/25 07:12:58;;;;;;;14.02;9.27;;;;;;;;;;5081298;28;20016;-72
2023/03/25 07:15:43;;;;;;;17.48;9.85;;;;;;;;;;5095896;28;20573;-74
2023/03/25 07:18:29;;;;;;;13.55;8.40;;;;;;;;;;5096620;28;20034;-73
2023/03/25 07:21:15;;;;;;;14.18;9.38;;;;;;;;;;5094378;28;20496;-72
2023/03/25 07:24:01;;;;;;;12.52;9.05;;;;;;;;;;5093487;28;20035;-72
2023/03/25 07:26:46;;;;;;;15.13;10.10;;;;;;;;;;5095162;28;20031;-72
2023/03/25 07:29:32;;;;;;;15.32;10.43;;;;;;;;;;5094390;28;20449;-71
2023/03/25 07:32:17;;;;;;;14.25;10.80;;;;;;;;;;5095052;28;20432;-72
2023/03/25 07:35:03;;;;;;;14.00;9.82;;;;;;;;;;5094188;28;20173;-72
2023/03/25 07:37:49;;;;;;;12.77;8.65;;;;;;;;;;5093670;28;20113;-72
2023/03/25 07:40:35;;;;;;;10.82;7.90;;;;;;;;;;5094239;28;20115;-71
2023/03/25 07:43:20;;;;;;;9.07;7.35;;;;;;;;;;5094282;28;20020;-72
2023/03/25 07:46:06;;;;;;;10.20;6.90;;;;;;;;;;5094095;28;20028;-73
2023/03/25 07:48:52;;;;;;;11.88;6.97;;;;;;;;;;5094079;28;20024;-72
2023/03/25 07:51:37;;;;;;;9.55;7.65;;;;;;;;;;5093627;28;20047;-72
2023/03/25 07:54:23;;;;;;;13.60;7.68;;;;;;;;;;5093311;28;20016;-72
2023/03/25 07:57:09;;;;;;;9.43;7.18;;;;;;;;;;5094247;28;20028;-72
2023/03/25 07:59:55;;;;;;;9.10;6.85;;;;;;;;;;5080436;28;20028;-72
2023/03/25 08:02:40;;;;;;;8.90;6.82;;;;;;;;;;5080396;28;20020;-72
2023/03/25 08:05:26;;;;;;;12.27;7.63;;;;;;;;;;5093107;28;20309;-72
2023/03/25 08:08:12;;;;;;;10.82;7.20;;;;;;;;;;5093359;28;20111;-72
2023/03/25 08:10:58;;;;;;;8.82;6.68;;;;;;;;;;5095351;28;20388;-72
2023/03/25 08:13:44;;;;;;;8.23;6.80;;;;;;;;;;5093258;28;20085;-72
2023/03/25 08:16:29;;;;;;;12.57;8.20;;;;;;;;;;5094234;28;20074;-71
2023/03/25 08:19:15;;;;;;;9.93;7.30;;;;;;;;;;5080694;28;20070;-72
2023/03/25 08:22:01;;;;;;;10.63;7.05;;;;;;;;;;5092665;28;20103;-72
2023/03/25 08:24:46;;;;;;;9.07;7.07;;;;;;;;;;5080532;28;20027;-73
2023/03/25 08:27:32;;;;;;;9.65;6.95;;;;;;;;;;5079289;28;20043;-72
2023/03/25 08:30:18;;;;;;;8.35;6.80;;;;;;;;;;5093558;28;20032;-72
2023/03/25 08:33:05;;;;;;;10.60;6.38;;;;;;;;;;5093662;28;20024;-71
2023/03/25 08:35:51;;;;;;;9.02;6.80;;;;;;;;;;5095471;28;20117;-72
2023/03/25 08:38:37;;;;;;;10.15;7.47;;;;;;;;;;5094475;28;20031;-72
2023/03/25 08:41:23;;;;;;;9.80;6.85;;;;;;;;;;5094064;28;20031;-73
2023/03/25 08:44:09;;;;;;;11.90;7.75;;;;;;;;;;5079861;28;20028;-71
2023/03/25 08:46:55;;;;;;;11.15;8.75;;;;;;;;;;5080123;28;20024;-72
2023/03/25 08:49:41;;;;;;;37.45;8.52;;;;;;;;;;5093441;28;20028;-72
2023/03/25 08:52:26;;;;;;;12.95;7.60;;;;;;;;;;5098043;28;20026;-73
2023/03/25 08:55:14;;;;;;;11.70;8.70;;;;;;;;;;5097501;28;20016;-72
2023/03/25 08:58:01;;;;;;;18.50;8.23;;;;;;;;;;5097143;28;20345;-73
2023/03/25 09:00:46;;;;;;;14.13;8.55;;;;;;;;;;5097743;28;20020;-72
2023/03/25 09:03:32;;;;;;;11.77;8.82;;;;;;;;;;5082915;28;20122;-72
2023/03/25 09:06:18;;;;;;;9.00;7.47;;;;;;;;;;5096568;28;20059;-73
2023/03/25 09:09:04;;;;;;;13.27;9.18;;;;;;;;;;5096578;28;20445;-72
2023/03/25 09:11:50;;;;;;;8.95;7.50;;;;;;;;;;5099137;28;20107;-72
2023/03/25 09:14:35;;;;;;;14.63;7.07;;;;;;;;;;5096965;28;20028;-72
2023/03/25 09:17:21;;;;;;;12.05;7.40;;;;;;;;;;5097148;28;20021;-72
2023/03/25 09:20:07;;;;;;;14.23;7.65;;;;;;;;;;5097146;28;20016;-71
2023/03/25 09:22:53;;;;;;;10.07;7.40;;;;;;;;;;5098859;28;20052;-72
2023/03/25 09:25:39;;;;;;;10.38;7.00;;;;;;;;;;5098915;28;20035;-72
2023/03/25 09:28:24;;;;;;;9.68;7.82;;;;;;;;;;5097683;28;20031;-72
2023/03/25 09:31:10;;;;;;;14.07;7.68;;;;;;;;;;5099082;28;20433;-73
2023/03/25 09:33:56;;;;;;;10.82;7.78;;;;;;;;;;5096669;28;20024;-72
2023/03/25 09:36:42;;;;;;;10.43;7.65;;;;;;;;;;5098752;28;20020;-72
2023/03/25 09:39:27;;;;;;;8.90;6.80;;;;;;;;;;5097798;28;20440;-72
2023/03/25 09:42:28;;;;;;;11.32;7.25;;;;;;;;;;5096418;28;20208;-72
2023/03/25 09:45:18;;;;;;;8.98;6.70;;;;;;;;;;5095803;28;20063;-72
2023/03/25 09:48:15;;;;;;;10.10;6.90;;;;;;;;;;5096142;28;20031;-71
2023/03/25 09:51:05;;;;;;;12.10;6.55;;;;;;;;;;5096775;28;20432;-72
2023/03/25 09:53:51;;;;;;;8.68;6.82;;;;;;;;;;5095863;28;20028;-72
2023/03/25 09:56:37;;;;;;;10.68;7.18;;;;;;;;;;5096035;28;20020;-71
2023/03/25 09:59:32;;;;;;;13.82;7.10;;;;;;;;;;5081079;28;20024;-71
2023/03/25 10:02:39;;;;;;;9.00;6.47;;;;;;;;;;5095376;28;20023;-71
2023/03/25 10:06:03;;;;;;;12.30;6.57;;;;;;;;;;5095861;28;20361;-73
2023/03/25 10:09:00;;;;;;;10.65;6.28;;;;;;;;;;4982042;28;20418;-72
2023/03/25 10:12:25;;;;;;;10.13;6.45;;;;;;;;;;4995174;28;20026;-72
2023/03/25 10:15:20;;;;;;;9.77;6.18;;;;;;;;;;4995679;28;20041;-71
2023/03/25 10:18:24;;;;;;;10.40;6.65;;;;;;;;;;4996189;28;20026;-72
2023/03/25 10:21:14;;;;;;;10.75;6.97;;;;;;;;;;5095782;28;20024;-72
2023/03/25 10:24:13;;;;;;;11.75;7.25;;;;;;;;;;5096204;28;20056;-72
2023/03/25 10:27:02;;;;;;;8.95;6.82;;;;;;;;;;5095672;28;20032;-73
2023/03/25 10:29:58;;;;;;;10.35;7.35;;;;;;;;;;5095878;28;20020;-72
2023/03/25 10:32:52;;;;;;;11.68;7.00;;;;;;;;;;5095469;28;20092;-71
2023/03/25 10:35:43;;;;;;;11.02;7.00;;;;;;;;;;5095460;28;20055;-72
2023/03/25 10:38:30;;;;;;;12.07;7.65;;;;;;;;;;5080354;28;20440;-72
2023/03/25 10:41:22;;;;;;;12.00;7.28;;;;;;;;;;5095749;28;20016;-71
2023/03/25 10:44:09;;;;;;;13.40;7.22;;;;;;;;;;5095136;28;20028;-72
2023/03/25 10:46:58;;;;;;;10.43;7.10;;;;;;;;;;5095206;28;20020;-72
2023/03/25 10:49:45;;;;;;;14.07;6.80;;;;;;;;;;5095484;28;20059;-71
2023/03/25 10:52:31;;;;;;;12.38;8.05;;;;;;;;;;5096425;28;20035;-71
2023/03/25 10:55:22;;;;;;;11.50;8.13;;;;;;;;;;5081104;28;20035;-72
2023/03/25 10:58:10;;;;;;;10.45;7.85;;;;;;;;;;5081557;28;20345;-72
2023/03/25 11:00:55;;;;;;;10.15;7.22;;;;;;;;;;5096941;28;20020;-72
2023/03/25 11:03:41;;;;;;;10.45;7.65;;;;;;;;;;5096763;28;20047;-72
2023/03/25 11:06:32;;;;;;;9.90;7.38;;;;;;;;;;5095122;28;20032;-71
2023/03/25 11:09:22;;;;;;;9.30;6.93;;;;;;;;;;5081305;28;20087;-72
2023/03/25 11:12:08;;;;;;;9.98;7.22;;;;;;;;;;5093880;28;20024;-72
2023/03/25 11:14:55;;;;;;;8.10;6.90;;;;;;;;;;5094931;28;20087;-72
2023/03/25 11:17:41;;;;;;;9.15;6.72;;;;;;;;;;5095593;28;20415;-72
2023/03/25 11:20:35;;;;;;;10.85;8.18;;;;;;;;;;5095012;28;20039;-72
2023/03/25 11:23:26;;;;;;;13.63;7.80;;;;;;;;;;5094602;28;20212;-72
2023/03/25 11:26:12;;;;;;;9.55;7.70;;;;;;;;;;5080447;28;20352;-72
2023/03/25 11:29:18;;;;;;;9.10;7.00;;;;;;;;;;5095206;28;20016;-72
2023/03/25 11:32:05;;;;;;;9.85;7.57;;;;;;;;;;5094682;28;20020;-72
2023/03/25 11:34:52;;;;;;;9.23;7.03;;;;;;;;;;5094620;28;20024;-71
2023/03/25 11:37:43;;;;;;;23.88;8.20;;;;;;;;;;5093989;28;20020;-72
2023/03/25 11:40:30;;;;;;;11.35;8.10;;;;;;;;;;5094804;28;20020;-72
2023/03/25 11:43:19;;;;;;;12.80;8.48;;;;;;;;;;5080613;28;20024;-72
2023/03/25 11:46:09;;;;;;;12.85;8.98;;;;;;;;;;5094006;28;20056;-74
2023/03/25 11:48:55;;;;;;;10.43;8.30;;;;;;;;;;5095001;28;20016;-73
2023/03/25 11:51:40;;;;;;;13.32;7.95;;;;;;;;;;5093807;28;20056;-72
2023/03/25 11:54:27;;;;;;;10.82;7.22;;;;;;;;;;5080942;28;20031;-73
2023/03/25 11:57:19;;;;;;;11.55;8.40;;;;;;;;;;5079868;28;20031;-71
2023/03/25 12:00:15;;;;;;;10.52;7.13;;;;;;;;;;5093767;28;20019;-72
2023/03/25 12:03:05;;;;;;;9.27;7.30;;;;;;;;;;5079778;28;20024;-72
2023/03/25 12:05:57;;;;;;;11.77;7.45;;;;;;;;;;5093557;28;20127;-72
2023/03/25 12:08:55;;;;;;;12.10;7.38;;;;;;;;;;5095492;28;20035;-72
2023/03/25 12:11:45;;;;;;;9.65;7.10;;;;;;;;;;5093779;28;20016;-72
2023/03/25 12:14:50;;;;;;;13.15;7.15;;;;;;;;;;5093545;28;20055;-73
2023/03/25 12:17:35;;;;;;;11.25;6.68;;;;;;;;;;5094165;28;20419;-73
2023/03/25 12:20:27;;;;;;;9.20;5.82;;;;;;;;;;5094313;28;20020;-73
2023/03/25 12:23:19;;;;;;;12.25;5.72;;;;;;;;;;5092795;28;20013;-73
2023/03/25 12:26:05;;;;;;;8.98;5.82;;;;;;;;;;5093284;28;20352;-73
2023/03/25 12:28:57;;;;;;;9.05;6.70;;;;;;;;;;5094530;28;20102;-72
2023/03/25 12:31:51;;;;;;;11.38;6.20;;;;;;;;;;5092933;28;20031;-73
2023/03/25 12:35:07;;;;;;;10.35;6.40;;;;;;;;;;5093826;28;20507;-73
2023/03/25 12:38:03;;;;;;;8.98;6.07;;;;;;;;;;5086643;28;20405;-71
2023/03/25 12:41:13;;;;;;;9.57;5.60;;;;;;;;;;5093700;28;20340;-72
2023/03/25 12:44:05;;;;;;;9.30;6.60;;;;;;;;;;5061561;28;20166;-72
2023/03/25 12:47:10;;;;;;;9.15;5.90;;;;;;;;;;5093960;28;20016;-72
2023/03/25 12:49:55;;;;;;;8.15;5.90;;;;;;;;;;5093752;28;20027;-72
2023/03/25 12:52:41;;;;;;;8.57;5.68;;;;;;;;;;5093481;28;20335;-73
2023/03/25 12:55:36;;;;;;;7.65;5.57;;;;;;;;;;5093731;28;20166;-72
2023/03/25 12:58:22;;;;;;;7.72;5.32;;;;;;;;;;5094265;28;20103;-74
2023/03/25 13:01:46;;;;;;;7.15;5.88;;;;;;;;;;5093917;28;20027;-72
2023/03/25 13:04:50;;;;;;;7.43;5.45;;;;;;;;;;4991872;28;20045;-72
2023/03/25 13:07:57;;;;;;;6.78;4.82;;;;;;;;;;4993341;28;20042;-72
2023/03/25 13:10:43;;;;;;;7.43;5.35;;;;;;;;;;5079134;28;20360;-72
2023/03/25 13:13:30;;;;;;;9.32;6.00;;;;;;;;;;5092876;28;20012;-72
2023/03/25 13:16:18;;;;;;;9.75;5.68;;;;;;;;;;5094929;28;20150;-72
2023/03/25 13:19:14;;;;;;;8.57;6.07;;;;;;;;;;5078089;28;20093;-72
2023/03/25 13:22:04;;;;;;;10.55;6.00;;;;;;;;;;5078944;28;20016;-72
2023/03/25 13:24:51;;;;;;;9.18;6.45;;;;;;;;;;5096670;28;20017;-71
2023/03/25 13:27:39;;;;;;;9.00;6.43;;;;;;;;;;5094038;28;20452;-71
2023/03/25 13:30:33;;;;;;;9.75;7.05;;;;;;;;;;5093240;28;20012;-72
2023/03/25 13:33:19;;;;;;;9.02;6.05;;;;;;;;;;5092237;28;20012;-73
2023/03/25 13:36:24;;;;;;;7.20;5.72;;;;;;;;;;5095064;28;20020;-72
2023/03/25 13:39:13;;;;;;;13.40;6.10;;;;;;;;;;5096790;28;20024;-73
2023/03/25 13:42:19;;;;;;;10.02;6.15;;;;;;;;;;5097146;28;20103;-72
2023/03/25 13:45:06;;;;;;;8.93;6.00;;;;;;;;;;5098156;28;20123;-72
2023/03/25 13:47:57;;;;;;;8.35;6.20;;;;;;;;;;5082489;28;20020;-71
2023/03/25 13:50:42;;;;;;;11.30;6.43;;;;;;;;;;5082228;28;20129;-72
2023/03/25 13:53:36;;;;;;;13.68;6.47;;;;;;;;;;5096305;28;20024;-72
2023/03/25 13:56:28;;;;;;;10.20;6.60;;;;;;;;;;5096067;28;20016;-72
2023/03/25 13:59:24;;;;;;;9.70;6.75;;;;;;;;;;5096601;28;20062;-72
2023/03/25 14:02:19;;;;;;;9.55;6.45;;;;;;;;;;5095872;28;20035;-71
2023/03/25 14:05:11;;;;;;;12.48;5.88;;;;;;;;;;5080957;28;20028;-72
2023/03/25 14:07:59;;;;;;;12.82;6.70;;;;;;;;;;5096394;28;20036;-71
2023/03/25 14:10:54;;;;;;;13.23;8.10;;;;;;;;;;5082816;28;20016;-71
2023/03/25 14:13:43;;;;;;;44.58;32.67;;;;;;;;;;5096470;28;20020;-74
2023/03/25 14:16:32;;;;;;;9.63;7.43;;;;;;;;;;5096885;28;20020;-71
2023/03/25 14:19:29;;;;;;;8.85;6.78;;;;;;;;;;5082299;28;20028;-72
2023/03/25 14:22:16;;;;;;;13.77;7.38;;;;;;;;;;5079805;28;20030;-73
2023/03/25 14:25:02;;;;;;;10.45;6.55;;;;;;;;;;5097984;28;20102;-72
2023/03/25 14:27:49;;;;;;;11.77;7.25;;;;;;;;;;5095953;28;20024;-73
2023/03/25 14:30:35;;;;;;;11.55;7.13;;;;;;;;;;5095673;28;20020;-73
2023/03/25 14:33:21;;;;;;;10.35;7.10;;;;;;;;;;5095674;28;20028;-72
2023/03/25 14:36:07;;;;;;;9.02;7.00;;;;;;;;;;5081765;28;20352;-73
2023/03/25 14:38:55;;;;;;;17.13;9.07;;;;;;;;;;5095445;28;20032;-71
2023/03/25 14:41:55;;;;;;;11.60;7.82;;;;;;;;;;5095569;28;20038;-72
2023/03/25 14:44:48;;;;;;;9.07;6.32;;;;;;;;;;5095248;28;20055;-72
2023/03/25 14:47:34;;;;;;;9.25;6.40;;;;;;;;;;5095640;28;20020;-72
2023/03/25 14:50:19;;;;;;;10.27;6.97;;;;;;;;;;5094828;28;20082;-72
2023/03/25 14:53:09;;;;;;;8.88;6.38;;;;;;;;;;5093692;28;20067;-72
2023/03/25 14:55:55;;;;;;;10.95;7.07;;;;;;;;;;5095357;28;20048;-72
2023/03/25 14:58:41;;;;;;;10.77;7.07;;;;;;;;;;5096765;28;20433;-72
2023/03/25 15:01:32;;;;;;;12.38;7.38;;;;;;;;;;5094642;28;20032;-72
2023/03/25 15:04:32;;;;;;;9.63;7.03;;;;;;;;;;5095402;28;20436;-72
2023/03/25 15:07:18;;;;;;;11.80;6.95;;;;;;;;;;5094644;28;20055;-72
2023/03/25 15:10:05;;;;;;;13.20;7.82;;;;;;;;;;5094135;28;20035;-73
2023/03/25 15:12:53;;;;;;;12.75;7.13;;;;;;;;;;5080519;28;20012;-72
2023/03/25 15:15:44;;;;;;;9.95;6.97;;;;;;;;;;5094601;28;20107;-72
2023/03/25 15:18:30;;;;;;;11.63;7.45;;;;;;;;;;5079255;28;20345;-72
2023/03/25 15:21:16;;;;;;;9.25;6.00;;;;;;;;;;5094141;28;20055;-72
2023/03/25 15:24:02;;;;;;;7.85;6.03;;;;;;;;;;5094580;28;20028;-72
2023/03/25 15:26:48;;;;;;;9.15;5.68;;;;;;;;;;5095130;28;20024;-72
2023/03/25 15:29:38;;;;;;;8.15;5.70;;;;;;;;;;5079096;28;20039;-72
2023/03/25 15:32:42;;;;;;;7.95;5.20;;;;;;;;;;5094931;28;20035;-72
2023/03/25 15:35:37;;;;;;;9.52;5.53;;;;;;;;;;5094172;28;20050;-72
2023/03/25 15:38:41;;;;;;;13.70;6.28;;;;;;;;;;5093650;28;20460;-71
2023/03/25 15:42:05;;;;;;;7.00;5.50;;;;;;;;;;5081795;28;20066;-72
2023/03/25 15:45:10;;;;;;;9.95;5.97;;;;;;;;;;4980042;28;20026;-73
2023/03/25 15:48:14;;;;;;;9.23;6.70;;;;;;;;;;4979614;28;20482;-73
2023/03/25 15:51:12;;;;;;;12.45;6.40;;;;;;;;;;5096668;28;20402;-73
2023/03/25 15:54:17;;;;;;;12.77;7.30;;;;;;;;;;5079689;28;20406;-72
2023/03/25 15:57:26;;;;;;;10.95;6.85;;;;;;;;;;5093787;28;20020;-73
2023/03/25 16:00:17;;;;;;;10.88;7.30;;;;;;;;;;5092818;28;20365;-72
2023/03/25 16:03:14;;;;;;;10.23;6.70;;;;;;;;;;5079586;28;20016;-73
2023/03/25 16:06:01;;;;;;;10.68;7.10;;;;;;;;;;5082976;28;20040;-72
2023/03/25 16:08:48;;;;;;;11.82;6.93;;;;;;;;;;5093813;28;20011;-72
2023/03/25 16:11:33;;;;;;;12.07;6.65;;;;;;;;;;5093737;28;20028;-72
2023/03/25 16:14:21;;;;;;;8.98;6.50;;;;;;;;;;5093763;28;20024;-72
2023/03/25 16:17:10;;;;;;;12.13;6.93;;;;;;;;;;5078252;28;20028;-72
2023/03/25 16:19:56;;;;;;;9.85;6.80;;;;;;;;;;5079826;28;20026;-71
2023/03/25 16:22:42;;;;;;;9.95;7.35;;;;;;;;;;5095030;28;20038;-72
2023/03/25 16:25:34;;;;;;;11.65;7.70;;;;;;;;;;5094577;28;20060;-73
2023/03/25 16:28:52;;;;;;;12.93;8.32;;;;;;;;;;5092952;28;20035;-72
2023/03/25 16:31:41;;;;;;;12.00;9.10;;;;;;;;;;5051647;28;20334;-72
2023/03/25 16:34:31;;;;;;;12.15;8.13;;;;;;;;;;5078503;28;20020;-72
2023/03/25 16:37:17;;;;;;;13.70;8.07;;;;;;;;;;5093133;28;20020;-72
2023/03/25 16:40:04;;;;;;;13.88;7.95;;;;;;;;;;5093566;28;20375;-72